Odum, Georgia
Current Conditions -  °F | °C
As of 9:55 AM on Monday 24 Nov 2014 (Local Time) from KJES Reporting Station
Overcast Overcast  
Wind Chill: 79°   Ceiling: 1200
Heat Index: 82°   Visibility: 10mi
Dew Point: 73°   Wind: 10mph
Humidity: 83%   Direction: 230°SW
Pressure: 29.9"   Gusts: NA
Location:  31.67°N, 82.03°W
Report Text: KJES 241455Z AUTO 23009KT 190V250 10SM OVC012 26/23 A2990 RMK AO2
Loading
Personal Weather Stations






























Interactive Weather Map New forecast layout! Learn more

10-Day Weather Forecast

Advertisements
Track Severe Weather on mobile